Wardeh — ODUS — position and weather

sailwx.info

Track history (hours):
 
Tides and Currents Weather Stations Pressure Air Temp Water Temp Dewpoint Dewpoint Depression Visibility Wind Speed Wind Dir Waves Ship Positions

Wardeh

Last reported at 2016-Aug-28 21:33 UTC. Time now 2016-Aug-29 01:58 UTC.
Position N 37°29' W 000°51'.

; draft 7 m.

Type: Cargo ship. MMSI: 450522000.

Date/timePositionNaut miles runAvg speedWind from/ knotsBaromVisibWave heightAir tempDewpointWater temp
2016-Aug-28 21:33N 37°29' W 000°51'1 0.9
2016-Aug-28 20:33N 37°29' W 000°52'1 0.7
2016-Aug-28 19:31N 37°28' W 000°52'1 1.2
2016-Aug-28 18:31N 37°28' W 000°51'5 5.4
2016-Aug-28 17:33N 37°29' W 000°44'10 9.7
2016-Aug-28 16:33N 37°29' W 000°32'10 9.6
2016-Aug-28 15:33N 37°29' W 000°20'4 3.6
2016-Aug-28 14:33N 37°28' W 000°24'1 0.6
2016-Aug-28 13:33N 37°28' W 000°24'1010.0
2016-Aug-28 12:33N 37°28' W 000°12'1110.4
2016-Aug-28 11:32N 37°28' E 000°02'1110.6
2016-Aug-28 10:33N 37°28' E 000°15'1110.5
2016-Aug-28 09:33N 37°28' E 000°28'1010.5
2016-Aug-28 08:33N 37°28' E 000°41'1110.8
2016-Aug-28 07:33N 37°28' E 000°55'1210.9
2016-Aug-28 06:28N 37°28' E 001°10'9910.6
2016-Aug-27 21:07N 37°28' E 003°15'1810.5
2016-Aug-27 19:23N 37°28' E 003°38'1010.1
2016-Aug-27 18:24N 37°28' E 003°50'7713.2
2016-Aug-27 12:33N 37°29' E 005°27'4614.4
2016-Aug-27 09:22N 37°31' E 006°25'19315.0
2016-Aug-26 20:32N 37°37' E 010°28'1515.3
2016-Aug-26 19:33N 37°33' E 010°46'3115.3
2016-Aug-26 17:33N 37°24' E 011°23'1614.9
2016-Aug-26 16:27N 37°17' E 011°42'1314.8
2016-Aug-26 15:33N 37°12' E 011°57'1514.6
2016-Aug-26 14:33N 37°07' E 012°14'1515.1
2016-Aug-26 13:33N 37°01' E 012°32'1515.5
2016-Aug-26 12:33N 36°56' E 012°50'1515.3
2016-Aug-26 11:33N 36°50' E 013°08'1515.1
2016-Aug-26 10:34N 36°44' E 013°25'1514.8
2016-Aug-26 09:33N 36°39' E 013°43'1514.8
2016-Aug-26 08:33N 36°34' E 014°00'1514.9
2016-Aug-26 07:33N 36°30' E 014°18'1515.3
2016-Aug-26 06:33N 36°24' E 014°35'  
2016-Aug-23 23:33N 34°13' E 031°08'1614.4
2016-Aug-23 22:26N 34°11' E 031°28'1314.5
2016-Aug-23 21:33N 34°10' E 031°43'1414.5
2016-Aug-23 20:33N 34°09' E 032°01'1414.4
2016-Aug-23 19:33N 34°07' E 032°18'1414.2
2016-Aug-23 18:33N 34°06' E 032°35'1414.0
2016-Aug-23 17:32N 34°05' E 032°52'1413.9
2016-Aug-23 16:33N 34°03' E 033°09'1414.1
2016-Aug-23 15:33N 34°03' E 033°26'1514.4
2016-Aug-23 14:33N 34°02' E 033°43'1414.6
2016-Aug-23 13:33N 34°01' E 034°00'1714.9
2016-Aug-23 12:25N 33°59' E 034°21'1315.0
2016-Aug-23 11:33N 33°58' E 034°37'1814.7
2016-Aug-23 10:21N 33°56' E 034°58'1314.7
2016-Aug-23 09:28N 33°56' E 035°13'1313.8
2016-Aug-23 08:33N 33°55' E 035°28'  
2016-Aug-19 08:04N 33°55' E 035°32'14 9.2
2016-Aug-19 06:33N 33°54' E 035°15'1414.3
2016-Aug-19 05:33N 33°55' E 034°58'1514.2
2016-Aug-19 04:30N 33°56' E 034°40'1514.2
2016-Aug-19 03:26N 33°58' E 034°22'1314.4
2016-Aug-19 02:31N 33°59' E 034°06'1414.4
2016-Aug-19 01:33N 33°60' E 033°49'1614.6
2016-Aug-19 00:28N 34°01' E 033°30'1414.8
2016-Aug-18 23:33N 34°02' E 033°14'1514.9
2016-Aug-18 22:33N 34°03' E 032°56'1514.8
2016-Aug-18 21:33N 34°04' E 032°38'  
Track history (hours):
 
Tides and Currents Weather Stations Pressure Air Temp Water Temp Dewpoint Dewpoint Depression Visibility Wind Speed Wind Dir Waves Ship Positions

Wardeh

Last reported at 2016-Aug-28 21:33 UTC. Time now 2016-Aug-29 01:58 UTC.
Position N 37°29' W 000°51'.

; draft 7 m.

Type: Cargo ship. MMSI: 450522000.

Date/timePositionNaut miles runAvg speedWind from/ knotsBaromVisibWave heightAir tempDewpointWater temp
2016-Aug-28 21:33N 37°29' W 000°51'1 0.9
2016-Aug-28 20:33N 37°29' W 000°52'1 0.7
2016-Aug-28 19:31N 37°28' W 000°52'1 1.2
2016-Aug-28 18:31N 37°28' W 000°51'5 5.4
2016-Aug-28 17:33N 37°29' W 000°44'10 9.7
2016-Aug-28 16:33N 37°29' W 000°32'10 9.6
2016-Aug-28 15:33N 37°29' W 000°20'4 3.6
2016-Aug-28 14:33N 37°28' W 000°24'1 0.6
2016-Aug-28 13:33N 37°28' W 000°24'1010.0
2016-Aug-28 12:33N 37°28' W 000°12'1110.4
2016-Aug-28 11:32N 37°28' E 000°02'1110.6
2016-Aug-28 10:33N 37°28' E 000°15'1110.5
2016-Aug-28 09:33N 37°28' E 000°28'1010.5
2016-Aug-28 08:33N 37°28' E 000°41'1110.8
2016-Aug-28 07:33N 37°28' E 000°55'1210.9
2016-Aug-28 06:28N 37°28' E 001°10'9910.6
2016-Aug-27 21:07N 37°28' E 003°15'1810.5
2016-Aug-27 19:23N 37°28' E 003°38'1010.1
2016-Aug-27 18:24N 37°28' E 003°50'7713.2
2016-Aug-27 12:33N 37°29' E 005°27'4614.4
2016-Aug-27 09:22N 37°31' E 006°25'19315.0
2016-Aug-26 20:32N 37°37' E 010°28'1515.3
2016-Aug-26 19:33N 37°33' E 010°46'3115.3
2016-Aug-26 17:33N 37°24' E 011°23'1614.9
2016-Aug-26 16:27N 37°17' E 011°42'1314.8
2016-Aug-26 15:33N 37°12' E 011°57'1514.6
2016-Aug-26 14:33N 37°07' E 012°14'1515.1
2016-Aug-26 13:33N 37°01' E 012°32'1515.5
2016-Aug-26 12:33N 36°56' E 012°50'1515.3
2016-Aug-26 11:33N 36°50' E 013°08'1515.1
2016-Aug-26 10:34N 36°44' E 013°25'1514.8
2016-Aug-26 09:33N 36°39' E 013°43'1514.8
2016-Aug-26 08:33N 36°34' E 014°00'1514.9
2016-Aug-26 07:33N 36°30' E 014°18'1515.3
2016-Aug-26 06:33N 36°24' E 014°35'  
2016-Aug-23 23:33N 34°13' E 031°08'1614.4
2016-Aug-23 22:26N 34°11' E 031°28'1314.5
2016-Aug-23 21:33N 34°10' E 031°43'1414.5
2016-Aug-23 20:33N 34°09' E 032°01'1414.4
2016-Aug-23 19:33N 34°07' E 032°18'1414.2
2016-Aug-23 18:33N 34°06' E 032°35'1414.0
2016-Aug-23 17:32N 34°05' E 032°52'1413.9
2016-Aug-23 16:33N 34°03' E 033°09'1414.1
2016-Aug-23 15:33N 34°03' E 033°26'1514.4
2016-Aug-23 14:33N 34°02' E 033°43'1414.6
2016-Aug-23 13:33N 34°01' E 034°00'1714.9
2016-Aug-23 12:25N 33°59' E 034°21'1315.0
2016-Aug-23 11:33N 33°58' E 034°37'1814.7
2016-Aug-23 10:21N 33°56' E 034°58'1314.7
2016-Aug-23 09:28N 33°56' E 035°13'1313.8
2016-Aug-23 08:33N 33°55' E 035°28'  
2016-Aug-19 08:04N 33°55' E 035°32'14 9.2
2016-Aug-19 06:33N 33°54' E 035°15'1414.3
2016-Aug-19 05:33N 33°55' E 034°58'1514.2
2016-Aug-19 04:30N 33°56' E 034°40'1514.2
2016-Aug-19 03:26N 33°58' E 034°22'1314.4
2016-Aug-19 02:31N 33°59' E 034°06'1414.4
2016-Aug-19 01:33N 33°60' E 033°49'1614.6
2016-Aug-19 00:28N 34°01' E 033°30'1414.8
2016-Aug-18 23:33N 34°02' E 033°14'1514.9
2016-Aug-18 22:33N 34°03' E 032°56'1514.8
2016-Aug-18 21:33N 34°04' E 032°38'  

Dump ship's entire track history